sensor_id;sensor_type;location;lat;lon;timestamp;pressure;altitude;pressure_sealevel;temperature;humidity
49393;BME280;35268;42.642;23.308;2023-05-08T00:01:31;94094.06;;;13.26;63.02
49393;BME280;35268;42.642;23.308;2023-05-08T00:03:56;94098.50;;;13.22;62.99
49393;BME280;35268;42.642;23.308;2023-05-08T00:06:22;94085.13;;;13.22;62.96
49393;BME280;35268;42.642;23.308;2023-05-08T00:08:47;94098.97;;;13.24;62.91
49393;BME280;35268;42.642;23.308;2023-05-08T00:11:13;94101.19;;;13.22;63.04
49393;BME280;35268;42.642;23.308;2023-05-08T00:13:38;94097.75;;;13.21;63.13
49393;BME280;35268;42.642;23.308;2023-05-08T00:16:06;94097.44;;;13.14;63.07
49393;BME280;35268;42.642;23.308;2023-05-08T00:18:34;94093.84;;;13.10;63.38
49393;BME280;35268;42.642;23.308;2023-05-08T00:21:00;94098.41;;;13.10;63.36
49393;BME280;35268;42.642;23.308;2023-05-08T00:23:25;94107.53;;;13.09;63.59
49393;BME280;35268;42.642;23.308;2023-05-08T00:25:51;94104.88;;;13.09;63.54
49393;BME280;35268;42.642;23.308;2023-05-08T00:28:16;94115.56;;;13.09;63.47
49393;BME280;35268;42.642;23.308;2023-05-08T00:30:42;94114.00;;;13.08;63.60
49393;BME280;35268;42.642;23.308;2023-05-08T00:33:07;94109.28;;;13.04;63.64
49393;BME280;35268;42.642;23.308;2023-05-08T00:35:33;94106.50;;;13.01;63.88
49393;BME280;35268;42.642;23.308;2023-05-08T00:37:59;94114.38;;;12.97;63.85
49393;BME280;35268;42.642;23.308;2023-05-08T00:40:25;94098.94;;;12.94;64.03
49393;BME280;35268;42.642;23.308;2023-05-08T00:42:51;94110.31;;;12.91;64.15
49393;BME280;35268;42.642;23.308;2023-05-08T00:45:17;94101.03;;;12.89;64.34
49393;BME280;35268;42.642;23.308;2023-05-08T00:47:42;94108.31;;;12.79;64.71
49393;BME280;35268;42.642;23.308;2023-05-08T00:50:08;94102.69;;;12.72;65.04
49393;BME280;35268;42.642;23.308;2023-05-08T00:52:34;94105.97;;;12.69;65.22
49393;BME280;35268;42.642;23.308;2023-05-08T00:55:01;94103.97;;;12.66;65.18
49393;BME280;35268;42.642;23.308;2023-05-08T00:57:29;94111.06;;;12.62;65.29
49393;BME280;35268;42.642;23.308;2023-05-08T00:59:57;94111.06;;;12.62;65.33
49393;BME280;35268;42.642;23.308;2023-05-08T01:02:24;94111.81;;;12.62;65.08
49393;BME280;35268;42.642;23.308;2023-05-08T01:04:51;94118.72;;;12.63;65.23
49393;BME280;35268;42.642;23.308;2023-05-08T01:07:18;94123.63;;;12.61;65.25
49393;BME280;35268;42.642;23.308;2023-05-08T01:09:44;94115.59;;;12.61;65.10
49393;BME280;35268;42.642;23.308;2023-05-08T01:12:20;94116.88;;;12.55;65.33
49393;BME280;35268;42.642;23.308;2023-05-08T01:23:23;94123.94;;;12.51;65.54
49393;BME280;35268;42.642;23.308;2023-05-08T01:26:04;94120.81;;;12.49;65.61
49393;BME280;35268;42.642;23.308;2023-05-08T01:33:35;94123.81;;;12.48;65.44
49393;BME280;35268;42.642;23.308;2023-05-08T01:36:15;94109.97;;;12.45;65.62
49393;BME280;35268;42.642;23.308;2023-05-08T01:38:51;94116.13;;;12.46;65.62
49393;BME280;35268;42.642;23.308;2023-05-08T01:41:27;94111.09;;;12.44;65.58
49393;BME280;35268;42.642;23.308;2023-05-08T01:43:57;94112.50;;;12.42;65.60
49393;BME280;35268;42.642;23.308;2023-05-08T01:46:26;94114.38;;;12.41;65.63
49393;BME280;35268;42.642;23.308;2023-05-08T01:48:59;94104.66;;;12.37;65.72
49393;BME280;35268;42.642;23.308;2023-05-08T01:51:35;94101.50;;;12.35;65.68
49393;BME280;35268;42.642;23.308;2023-05-08T01:54:04;94102.63;;;12.34;65.71
49393;BME280;35268;42.642;23.308;2023-05-08T01:56:32;94100.91;;;12.20;66.06
49393;BME280;35268;42.642;23.308;2023-05-08T01:59:00;94107.03;;;12.21;66.12
49393;BME280;35268;42.642;23.308;2023-05-08T02:01:27;94103.72;;;12.24;66.00
49393;BME280;35268;42.642;23.308;2023-05-08T02:03:54;94103.09;;;12.27;65.90
49393;BME280;35268;42.642;23.308;2023-05-08T02:06:21;94100.09;;;12.29;65.69
49393;BME280;35268;42.642;23.308;2023-05-08T02:08:47;94103.91;;;12.28;65.53
49393;BME280;35268;42.642;23.308;2023-05-08T02:11:15;94106.56;;;12.28;65.57
49393;BME280;35268;42.642;23.308;2023-05-08T02:13:43;94109.25;;;12.28;65.49
49393;BME280;35268;42.642;23.308;2023-05-08T02:16:11;94110.00;;;12.28;65.75
49393;BME280;35268;42.642;23.308;2023-05-08T02:18:39;94101.38;;;12.22;65.68
49393;BME280;35268;42.642;23.308;2023-05-08T02:21:07;94098.72;;;12.14;65.97
49393;BME280;35268;42.642;23.308;2023-05-08T02:23:34;94110.84;;;12.11;66.23
49393;BME280;35268;42.642;23.308;2023-05-08T02:26:02;94110.38;;;12.09;66.15
49393;BME280;35268;42.642;23.308;2023-05-08T02:28:29;94113.03;;;12.09;66.33
49393;BME280;35268;42.642;23.308;2023-05-08T02:30:57;94103.44;;;12.08;66.34
49393;BME280;35268;42.642;23.308;2023-05-08T02:33:23;94108.78;;;12.08;66.42
49393;BME280;35268;42.642;23.308;2023-05-08T02:35:50;94111.44;;;12.08;66.35
49393;BME280;35268;42.642;23.308;2023-05-08T02:38:19;94104.09;;;12.05;66.29
49393;BME280;35268;42.642;23.308;2023-05-08T02:40:50;94109.88;;;12.07;66.32
49393;BME280;35268;42.642;23.308;2023-05-08T02:43:17;94107.69;;;12.09;66.32
49393;BME280;35268;42.642;23.308;2023-05-08T02:45:47;94116.50;;;12.01;66.56
49393;BME280;35268;42.642;23.308;2023-05-08T02:48:30;94102.81;;;12.02;66.70
49393;BME280;35268;42.642;23.308;2023-05-08T02:51:21;94113.81;;;12.01;66.82
49393;BME280;35268;42.642;23.308;2023-05-08T02:56:46;94120.41;;;12.03;66.77
49393;BME280;35268;42.642;23.308;2023-05-08T02:59:35;94118.06;;;12.02;66.81
49393;BME280;35268;42.642;23.308;2023-05-08T03:02:32;94123.41;;;12.02;66.86
49393;BME280;35268;42.642;23.308;2023-05-08T03:05:04;94118.84;;;12.02;66.71
49393;BME280;35268;42.642;23.308;2023-05-08T03:07:31;94123.25;;;12.07;66.70
49393;BME280;35268;42.642;23.308;2023-05-08T03:10:10;94119.63;;;12.12;66.51
49393;BME280;35268;42.642;23.308;2023-05-08T03:12:40;94113.16;;;12.13;66.65
49393;BME280;35268;42.642;23.308;2023-05-08T03:15:12;94128.56;;;12.16;66.78
49393;BME280;35268;42.642;23.308;2023-05-08T03:17:40;94127.81;;;12.15;66.54
49393;BME280;35268;42.642;23.308;2023-05-08T03:20:11;94124.66;;;12.13;66.44
49393;BME280;35268;42.642;23.308;2023-05-08T03:22:40;94123.72;;;12.09;66.72
49393;BME280;35268;42.642;23.308;2023-05-08T03:25:08;94124.34;;;12.06;66.92
49393;BME280;35268;42.642;23.308;2023-05-08T03:27:35;94121.03;;;12.00;66.77
49393;BME280;35268;42.642;23.308;2023-05-08T03:30:03;94127.19;;;12.01;67.00
49393;BME280;35268;42.642;23.308;2023-05-08T03:32:30;94126.38;;;12.00;66.72
49393;BME280;35268;42.642;23.308;2023-05-08T03:34:58;94130.94;;;12.00;66.80
49393;BME280;35268;42.642;23.308;2023-05-08T03:37:26;94126.38;;;12.00;66.66
49393;BME280;35268;42.642;23.308;2023-05-08T03:39:53;94131.25;;;12.07;66.65
49393;BME280;35268;42.642;23.308;2023-05-08T03:42:18;94122.59;;;12.10;66.65
49393;BME280;35268;42.642;23.308;2023-05-08T03:44:51;94124.97;;;12.12;66.34
49393;BME280;35268;42.642;23.308;2023-05-08T03:47:20;94120.88;;;12.14;66.52
49393;BME280;35268;42.642;23.308;2023-05-08T03:49:47;94124.66;;;12.22;66.22
49393;BME280;35268;42.642;23.308;2023-05-08T03:52:14;94133.59;;;12.26;66.39
49393;BME280;35268;42.642;23.308;2023-05-08T03:54:40;94134.06;;;12.28;65.89
49393;BME280;35268;42.642;23.308;2023-05-08T03:57:05;94133.75;;;12.30;65.35
49393;BME280;35268;42.642;23.308;2023-05-08T04:02:23;94136.91;;;12.32;65.31
49393;BME280;35268;42.642;23.308;2023-05-08T04:04:57;94138.78;;;12.40;65.54
49393;BME280;35268;42.642;23.308;2023-05-08T04:07:36;94146.16;;;12.43;65.28
49393;BME280;35268;42.642;23.308;2023-05-08T04:10:06;94142.38;;;12.44;64.76
49393;BME280;35268;42.642;23.308;2023-05-08T04:12:49;94152.44;;;12.47;64.66
49393;BME280;35268;42.642;23.308;2023-05-08T04:15:22;94148.66;;;12.48;64.69
49393;BME280;35268;42.642;23.308;2023-05-08T04:17:50;94151.63;;;12.55;64.67
49393;BME280;35268;42.642;23.308;2023-05-08T04:20:19;94156.03;;;12.60;64.69
49393;BME280;35268;42.642;23.308;2023-05-08T04:22:46;94154.16;;;12.60;64.72
49393;BME280;35268;42.642;23.308;2023-05-08T04:25:15;94160.44;;;12.64;64.87
49393;BME280;35268;42.642;23.308;2023-05-08T04:27:43;94154.75;;;12.75;65.37
49393;BME280;35268;42.642;23.308;2023-05-08T04:30:09;94168.25;;;12.78;64.54
49393;BME280;35268;42.642;23.308;2023-05-08T04:32:36;94167.00;;;12.76;63.79
49393;BME280;35268;42.642;23.308;2023-05-08T04:35:03;94154.09;;;12.78;63.51
49393;BME280;35268;42.642;23.308;2023-05-08T04:37:29;94161.03;;;12.79;63.54
49393;BME280;35268;42.642;23.308;2023-05-08T04:39:58;94159.75;;;12.85;64.31
49393;BME280;35268;42.642;23.308;2023-05-08T04:42:24;94150.91;;;12.93;63.53
49393;BME280;35268;42.642;23.308;2023-05-08T04:44:53;94149.78;;;12.94;63.08
49393;BME280;35268;42.642;23.308;2023-05-08T04:47:19;94148.50;;;13.00;63.27
49393;BME280;35268;42.642;23.308;2023-05-08T04:49:45;94144.53;;;13.07;63.01
49393;BME280;35268;42.642;23.308;2023-05-08T04:52:10;94141.69;;;13.12;63.44
49393;BME280;35268;42.642;23.308;2023-05-08T04:54:36;94136.34;;;13.12;62.94
49393;BME280;35268;42.642;23.308;2023-05-08T04:57:02;94142.31;;;13.17;63.08
49393;BME280;35268;42.642;23.308;2023-05-08T04:59:27;94126.72;;;13.19;63.07
49393;BME280;35268;42.642;23.308;2023-05-08T05:01:54;94134.44;;;13.21;63.36
49393;BME280;35268;42.642;23.308;2023-05-08T05:04:21;94125.09;;;13.27;63.16
49393;BME280;35268;42.642;23.308;2023-05-08T05:06:46;94137.56;;;13.23;63.60
49393;BME280;35268;42.642;23.308;2023-05-08T05:09:11;94136.91;;;13.26;63.77
49393;BME280;35268;42.642;23.308;2023-05-08T05:11:37;94125.59;;;13.29;63.53
49393;BME280;35268;42.642;23.308;2023-05-08T05:14:03;94123.69;;;13.30;63.39
49393;BME280;35268;42.642;23.308;2023-05-08T05:16:28;94134.56;;;13.33;63.29
49393;BME280;35268;42.642;23.308;2023-05-08T05:18:54;94124.78;;;13.37;63.15
49393;BME280;35268;42.642;23.308;2023-05-08T05:21:19;94126.59;;;13.46;62.69
49393;BME280;35268;42.642;23.308;2023-05-08T05:23:45;94116.28;;;13.56;62.56
49393;BME280;35268;42.642;23.308;2023-05-08T05:26:10;94120.50;;;13.66;62.07
49393;BME280;35268;42.642;23.308;2023-05-08T05:28:36;94127.41;;;13.67;62.07
49393;BME280;35268;42.642;23.308;2023-05-08T05:31:02;94127.22;;;13.72;62.12
49393;BME280;35268;42.642;23.308;2023-05-08T05:33:27;94126.31;;;13.68;62.21
49393;BME280;35268;42.642;23.308;2023-05-08T05:35:52;94121.41;;;13.70;61.96
49393;BME280;35268;42.642;23.308;2023-05-08T05:38:18;94134.13;;;13.73;61.77
49393;BME280;35268;42.642;23.308;2023-05-08T05:40:43;94126.09;;;13.73;62.17
49393;BME280;35268;42.642;23.308;2023-05-08T05:43:09;94130.69;;;13.73;62.80
49393;BME280;35268;42.642;23.308;2023-05-08T05:45:34;94128.38;;;13.83;62.39
49393;BME280;35268;42.642;23.308;2023-05-08T05:48:00;94127.09;;;13.90;61.82
49393;BME280;35268;42.642;23.308;2023-05-08T05:50:26;94131.59;;;13.98;61.37
49393;BME280;35268;42.642;23.308;2023-05-08T05:52:52;94124.16;;;14.03;61.55
49393;BME280;35268;42.642;23.308;2023-05-08T05:55:18;94128.31;;;14.13;61.10
49393;BME280;35268;42.642;23.308;2023-05-08T05:57:44;94125.25;;;14.23;60.70
49393;BME280;35268;42.642;23.308;2023-05-08T06:00:10;94125.59;;;14.34;60.55
49393;BME280;35268;42.642;23.308;2023-05-08T06:02:36;94124.69;;;14.51;60.27
49393;BME280;35268;42.642;23.308;2023-05-08T06:05:02;94119.81;;;14.66;58.59
49393;BME280;35268;42.642;23.308;2023-05-08T06:07:27;94115.84;;;14.84;57.83
49393;BME280;35268;42.642;23.308;2023-05-08T06:09:53;94107.88;;;15.00;57.71
49393;BME280;35268;42.642;23.308;2023-05-08T06:12:18;94107.25;;;15.15;57.47
49393;BME280;35268;42.642;23.308;2023-05-08T06:14:44;94114.19;;;15.29;56.51
49393;BME280;35268;42.642;23.308;2023-05-08T06:17:10;94114.72;;;15.34;56.00
49393;BME280;35268;42.642;23.308;2023-05-08T06:19:36;94104.44;;;15.36;56.50
49393;BME280;35268;42.642;23.308;2023-05-08T06:22:01;94109.34;;;15.47;56.09
49393;BME280;35268;42.642;23.308;2023-05-08T06:24:27;94106.56;;;15.55;54.71
49393;BME280;35268;42.642;23.308;2023-05-08T06:26:53;94107.97;;;15.65;54.90
49393;BME280;35268;42.642;23.308;2023-05-08T06:29:18;94113.72;;;15.76;54.45
49393;BME280;35268;42.642;23.308;2023-05-08T06:31:44;94109.84;;;15.89;54.00
49393;BME280;35268;42.642;23.308;2023-05-08T06:34:09;94108.50;;;15.95;54.17
49393;BME280;35268;42.642;23.308;2023-05-08T06:36:35;94116.88;;;16.06;54.56
49393;BME280;35268;42.642;23.308;2023-05-08T06:39:03;94116.41;;;16.16;54.70
49393;BME280;35268;42.642;23.308;2023-05-08T06:41:30;94112.53;;;16.30;52.86
49393;BME280;35268;42.642;23.308;2023-05-08T06:43:55;94114.88;;;16.31;53.13
49393;BME280;35268;42.642;23.308;2023-05-08T06:46:20;94118.78;;;16.34;52.42
49393;BME280;35268;42.642;23.308;2023-05-08T06:48:46;94117.91;;;16.30;52.59
49393;BME280;35268;42.642;23.308;2023-05-08T06:51:11;94119.50;;;16.31;52.49
49393;BME280;35268;42.642;23.308;2023-05-08T06:53:37;94113.50;;;16.37;53.03
49393;BME280;35268;42.642;23.308;2023-05-08T06:56:03;94117.78;;;16.54;52.12
49393;BME280;35268;42.642;23.308;2023-05-08T06:58:28;94120.69;;;16.61;51.32
49393;BME280;35268;42.642;23.308;2023-05-08T07:00:58;94117.38;;;16.68;51.50
49393;BME280;35268;42.642;23.308;2023-05-08T07:03:23;94120.25;;;16.59;51.53
49393;BME280;35268;42.642;23.308;2023-05-08T07:05:48;94129.00;;;16.56;52.30
49393;BME280;35268;42.642;23.308;2023-05-08T07:08:14;94127.34;;;16.52;52.75
49393;BME280;35268;42.642;23.308;2023-05-08T07:10:39;94121.78;;;16.60;52.77
49393;BME280;35268;42.642;23.308;2023-05-08T07:13:05;94132.06;;;16.71;52.32
49393;BME280;35268;42.642;23.308;2023-05-08T07:15:30;94131.13;;;16.79;51.85
49393;BME280;35268;42.642;23.308;2023-05-08T07:17:56;94132.81;;;16.83;51.63
49393;BME280;35268;42.642;23.308;2023-05-08T07:20:21;94130.91;;;16.84;51.30
49393;BME280;35268;42.642;23.308;2023-05-08T07:22:48;94124.31;;;16.97;51.07
49393;BME280;35268;42.642;23.308;2023-05-08T07:25:14;94121.03;;;17.20;50.76
49393;BME280;35268;42.642;23.308;2023-05-08T07:27:40;94126.66;;;17.47;49.69
49393;BME280;35268;42.642;23.308;2023-05-08T07:30:08;94123.47;;;17.60;48.94
49393;BME280;35268;42.642;23.308;2023-05-08T07:32:33;94129.72;;;17.64;48.96
49393;BME280;35268;42.642;23.308;2023-05-08T07:35:00;94127.41;;;17.63;49.00
49393;BME280;35268;42.642;23.308;2023-05-08T07:37:27;94129.25;;;17.59;49.29
49393;BME280;35268;42.642;23.308;2023-05-08T07:39:53;94135.75;;;17.58;49.22
49393;BME280;35268;42.642;23.308;2023-05-08T07:42:19;94131.94;;;17.59;49.53
49393;BME280;35268;42.642;23.308;2023-05-08T07:44:45;94132.63;;;17.56;48.61
49393;BME280;35268;42.642;23.308;2023-05-08T07:47:11;94126.81;;;17.54;49.32
49393;BME280;35268;42.642;23.308;2023-05-08T07:49:36;94140.69;;;17.72;49.49
49393;BME280;35268;42.642;23.308;2023-05-08T07:52:02;94120.75;;;17.76;48.91
49393;BME280;35268;42.642;23.308;2023-05-08T07:54:27;94134.16;;;17.89;49.03
49393;BME280;35268;42.642;23.308;2023-05-08T07:56:53;94137.00;;;17.96;48.79
49393;BME280;35268;42.642;23.308;2023-05-08T07:59:18;94139.19;;;17.90;48.73
49393;BME280;35268;42.642;23.308;2023-05-08T08:01:44;94148.84;;;17.91;48.70
49393;BME280;35268;42.642;23.308;2023-05-08T08:04:12;94149.53;;;17.88;48.58
49393;BME280;35268;42.642;23.308;2023-05-08T08:06:38;94138.69;;;17.84;48.70
49393;BME280;35268;42.642;23.308;2023-05-08T08:09:04;94155.22;;;17.83;48.81
49393;BME280;35268;42.642;23.308;2023-05-08T08:11:29;94154.84;;;17.84;49.57
49393;BME280;35268;42.642;23.308;2023-05-08T08:13:55;94148.69;;;17.84;49.14
49393;BME280;35268;42.642;23.308;2023-05-08T08:16:20;94136.16;;;17.92;48.40
49393;BME280;35268;42.642;23.308;2023-05-08T08:18:45;94140.81;;;17.95;47.80
49393;BME280;35268;42.642;23.308;2023-05-08T08:21:11;94139.72;;;17.96;48.02
49393;BME280;35268;42.642;23.308;2023-05-08T08:23:36;94144.66;;;17.94;47.93
49393;BME280;35268;42.642;23.308;2023-05-08T08:26:02;94146.72;;;18.00;47.88
49393;BME280;35268;42.642;23.308;2023-05-08T08:28:27;94140.13;;;17.98;48.27
49393;BME280;35268;42.642;23.308;2023-05-08T08:30:53;94145.00;;;17.92;48.34
49393;BME280;35268;42.642;23.308;2023-05-08T08:33:18;94143.34;;;18.03;48.37
49393;BME280;35268;42.642;23.308;2023-05-08T08:35:44;94129.34;;;18.17;48.45
49393;BME280;35268;42.642;23.308;2023-05-08T08:38:09;94118.44;;;18.10;48.53
49393;BME280;35268;42.642;23.308;2023-05-08T08:40:41;94112.59;;;18.28;48.76
49393;BME280;35268;42.642;23.308;2023-05-08T08:43:08;94108.34;;;18.46;48.85
49393;BME280;35268;42.642;23.308;2023-05-08T08:45:35;94107.03;;;18.59;49.16
49393;BME280;35268;42.642;23.308;2023-05-08T08:48:01;94107.50;;;18.84;47.76
49393;BME280;35268;42.642;23.308;2023-05-08T08:50:30;94118.94;;;18.97;48.06
49393;BME280;35268;42.642;23.308;2023-05-08T08:53:14;94108.38;;;19.12;48.86
49393;BME280;35268;42.642;23.308;2023-05-08T08:55:44;94114.63;;;19.16;47.53
49393;BME280;35268;42.642;23.308;2023-05-08T08:58:26;94101.94;;;19.20;48.10
49393;BME280;35268;42.642;23.308;2023-05-08T09:00:56;94095.78;;;19.46;48.65
49393;BME280;35268;42.642;23.308;2023-05-08T09:03:23;94087.19;;;19.67;48.49
49393;BME280;35268;42.642;23.308;2023-05-08T09:05:48;94079.00;;;19.87;47.84
49393;BME280;35268;42.642;23.308;2023-05-08T09:08:14;94078.38;;;20.00;47.17
49393;BME280;35268;42.642;23.308;2023-05-08T09:10:39;94083.78;;;20.00;46.91
49393;BME280;35268;42.642;23.308;2023-05-08T09:13:05;94076.00;;;19.95;47.10
49393;BME280;35268;42.642;23.308;2023-05-08T09:15:32;94075.97;;;19.92;47.07
49393;BME280;35268;42.642;23.308;2023-05-08T09:17:57;94067.13;;;19.95;47.55
49393;BME280;35268;42.642;23.308;2023-05-08T09:20:23;94065.97;;;19.96;47.79
49393;BME280;35268;42.642;23.308;2023-05-08T09:22:50;94070.84;;;20.13;47.28
49393;BME280;35268;42.642;23.308;2023-05-08T09:25:15;94059.09;;;20.36;47.26
49393;BME280;35268;42.642;23.308;2023-05-08T09:27:43;94050.78;;;20.55;46.29
49393;BME280;35268;42.642;23.308;2023-05-08T09:30:10;94046.75;;;20.76;46.66
49393;BME280;35268;42.642;23.308;2023-05-08T09:32:37;94041.53;;;20.97;46.32
49393;BME280;35268;42.642;23.308;2023-05-08T09:35:04;94042.41;;;21.09;45.12
49393;BME280;35268;42.642;23.308;2023-05-08T09:37:30;94047.88;;;21.16;44.91
49393;BME280;35268;42.642;23.308;2023-05-08T09:40:19;94052.66;;;21.33;44.08
49393;BME280;35268;42.642;23.308;2023-05-08T09:42:46;94054.28;;;21.45;43.33
49393;BME280;35268;42.642;23.308;2023-05-08T09:45:27;94074.16;;;21.60;43.46
49393;BME280;35268;42.642;23.308;2023-05-08T09:47:52;94078.91;;;21.74;42.12
49393;BME280;35268;42.642;23.308;2023-05-08T09:50:18;94079.59;;;21.63;42.26
49393;BME280;35268;42.642;23.308;2023-05-08T09:52:47;94076.06;;;21.56;42.66
49393;BME280;35268;42.642;23.308;2023-05-08T09:55:13;94086.47;;;21.47;43.08
49393;BME280;35268;42.642;23.308;2023-05-08T09:57:40;94086.78;;;21.41;42.62
49393;BME280;35268;42.642;23.308;2023-05-08T10:00:15;94079.72;;;21.30;43.33
49393;BME280;35268;42.642;23.308;2023-05-08T10:02:53;94076.97;;;21.26;43.58
49393;BME280;35268;42.642;23.308;2023-05-08T10:07:50;94075.66;;;21.06;43.50
49393;BME280;35268;42.642;23.308;2023-05-08T10:10:28;94085.28;;;20.99;43.93
49393;BME280;35268;42.642;23.308;2023-05-08T10:12:55;94084.06;;;20.93;43.75
49393;BME280;35268;42.642;23.308;2023-05-08T10:15:24;94079.81;;;20.96;43.95
49393;BME280;35268;42.642;23.308;2023-05-08T10:17:59;94067.88;;;21.00;44.07
49393;BME280;35268;42.642;23.308;2023-05-08T10:20:28;94069.34;;;20.91;44.40
49393;BME280;35268;42.642;23.308;2023-05-08T10:22:55;94060.88;;;20.96;44.37
49393;BME280;35268;42.642;23.308;2023-05-08T10:25:22;94058.53;;;20.94;44.10
49393;BME280;35268;42.642;23.308;2023-05-08T10:30:26;94051.16;;;20.91;44.91
49393;BME280;35268;42.642;23.308;2023-05-08T10:32:52;94050.75;;;20.89;44.68
49393;BME280;35268;42.642;23.308;2023-05-08T10:35:22;94047.69;;;20.94;44.28
49393;BME280;35268;42.642;23.308;2023-05-08T10:37:48;94043.84;;;20.95;44.77
49393;BME280;35268;42.642;23.308;2023-05-08T10:40:14;94045.09;;;21.05;45.62
49393;BME280;35268;42.642;23.308;2023-05-08T10:42:40;94036.28;;;21.19;44.44
49393;BME280;35268;42.642;23.308;2023-05-08T10:45:07;94037.34;;;21.07;44.30
49393;BME280;35268;42.642;23.308;2023-05-08T10:50:56;94028.78;;;21.01;45.81
49393;BME280;35268;42.642;23.308;2023-05-08T10:56:25;94033.72;;;20.89;46.63
49393;BME280;35268;42.642;23.308;2023-05-08T10:58:55;94022.88;;;20.89;45.90
49393;BME280;35268;42.642;23.308;2023-05-08T11:01:22;94020.66;;;21.01;46.69
49393;BME280;35268;42.642;23.308;2023-05-08T11:03:48;94015.81;;;21.25;46.61
49393;BME280;35268;42.642;23.308;2023-05-08T11:06:41;94006.34;;;21.60;45.88
49393;BME280;35268;42.642;23.308;2023-05-08T11:09:03;94011.91;;;21.89;45.07
49393;BME280;35268;42.642;23.308;2023-05-08T11:11:30;94008.91;;;22.12;42.75
49393;BME280;35268;42.642;23.308;2023-05-08T11:19:26;94001.81;;;21.86;43.79
49393;BME280;35268;42.642;23.308;2023-05-08T11:24:38;93989.44;;;21.92;43.54
49393;BME280;35268;42.642;23.308;2023-05-08T11:27:04;93986.78;;;22.02;42.92
49393;BME280;35268;42.642;23.308;2023-05-08T11:29:30;93976.34;;;22.19;43.33
49393;BME280;35268;42.642;23.308;2023-05-08T11:31:55;93977.19;;;22.37;42.61
49393;BME280;35268;42.642;23.308;2023-05-08T11:37:19;93980.34;;;22.79;41.32
49393;BME280;35268;42.642;23.308;2023-05-08T11:39:47;93972.56;;;22.77;40.83
49393;BME280;35268;42.642;23.308;2023-05-08T11:45:07;93962.88;;;22.91;40.90
49393;BME280;35268;42.642;23.308;2023-05-08T11:47:40;93957.84;;;22.96;39.67
49393;BME280;35268;42.642;23.308;2023-05-08T11:50:07;93944.25;;;22.96;38.09
49393;BME280;35268;42.642;23.308;2023-05-08T11:52:37;93948.13;;;23.10;39.66
49393;BME280;35268;42.642;23.308;2023-05-08T11:55:10;93941.09;;;23.37;39.47
49393;BME280;35268;42.642;23.308;2023-05-08T11:57:36;93937.56;;;23.51;37.42
49393;BME280;35268;42.642;23.308;2023-05-08T12:00:05;93927.81;;;23.57;37.92
49393;BME280;35268;42.642;23.308;2023-05-08T12:02:39;93926.59;;;23.73;38.56
49393;BME280;35268;42.642;23.308;2023-05-08T12:05:08;93924.63;;;23.88;36.76
49393;BME280;35268;42.642;23.308;2023-05-08T12:07:44;93930.81;;;23.92;36.67
49393;BME280;35268;42.642;23.308;2023-05-08T12:10:11;93929.25;;;23.91;36.62
49393;BME280;35268;42.642;23.308;2023-05-08T12:12:41;93928.88;;;23.92;37.05
49393;BME280;35268;42.642;23.308;2023-05-08T12:15:12;93928.50;;;23.83;35.83
49393;BME280;35268;42.642;23.308;2023-05-08T12:17:37;93929.34;;;23.66;35.35
49393;BME280;35268;42.642;23.308;2023-05-08T12:20:14;93922.78;;;23.52;36.04
49393;BME280;35268;42.642;23.308;2023-05-08T12:22:41;93926.31;;;23.46;36.46
49393;BME280;35268;42.642;23.308;2023-05-08T12:25:07;93924.78;;;23.34;37.07
49393;BME280;35268;42.642;23.308;2023-05-08T12:27:37;93929.88;;;23.14;38.45
49393;BME280;35268;42.642;23.308;2023-05-08T12:30:11;93925.97;;;22.93;38.24
49393;BME280;35268;42.642;23.308;2023-05-08T12:32:39;93915.53;;;22.52;38.90
49393;BME280;35268;42.642;23.308;2023-05-08T12:35:06;93928.31;;;22.30;40.10
49393;BME280;35268;42.642;23.308;2023-05-08T12:37:32;93922.00;;;21.94;42.63
49393;BME280;35268;42.642;23.308;2023-05-08T12:39:58;93932.06;;;21.90;47.47
49393;BME280;35268;42.642;23.308;2023-05-08T12:42:46;93926.53;;;21.57;47.85
49393;BME280;35268;42.642;23.308;2023-05-08T12:45:19;93937.59;;;21.31;49.43
49393;BME280;35268;42.642;23.308;2023-05-08T12:47:47;93932.09;;;21.13;50.26
49393;BME280;35268;42.642;23.308;2023-05-08T12:50:14;93928.47;;;20.94;50.96
49393;BME280;35268;42.642;23.308;2023-05-08T12:52:40;93923.84;;;20.95;49.28
49393;BME280;35268;42.642;23.308;2023-05-08T12:55:22;93909.41;;;21.42;47.43
49393;BME280;35268;42.642;23.308;2023-05-08T12:58:09;93922.38;;;21.89;46.39
49393;BME280;35268;42.642;23.308;2023-05-08T13:00:38;93907.59;;;21.75;45.32
49393;BME280;35268;42.642;23.308;2023-05-08T13:03:05;93905.88;;;21.38;44.10
49393;BME280;35268;42.642;23.308;2023-05-08T13:05:33;93913.13;;;21.13;44.77
49393;BME280;35268;42.642;23.308;2023-05-08T13:08:03;93913.81;;;20.99;45.60
49393;BME280;35268;42.642;23.308;2023-05-08T13:13:14;93909.78;;;20.75;45.64
49393;BME280;35268;42.642;23.308;2023-05-08T13:15:39;93909.78;;;20.75;46.71
49393;BME280;35268;42.642;23.308;2023-05-08T13:18:05;93915.22;;;20.78;46.19
49393;BME280;35268;42.642;23.308;2023-05-08T13:20:33;93930.75;;;20.85;46.56
49393;BME280;35268;42.642;23.308;2023-05-08T13:22:58;93932.34;;;20.93;46.26
49393;BME280;35268;42.642;23.308;2023-05-08T13:25:24;93924.69;;;21.06;47.33
49393;BME280;35268;42.642;23.308;2023-05-08T13:27:49;93930.91;;;21.10;47.52
49393;BME280;35268;42.642;23.308;2023-05-08T13:30:15;93935.56;;;21.10;47.23
49393;BME280;35268;42.642;23.308;2023-05-08T13:32:40;93943.94;;;20.90;47.62
49393;BME280;35268;42.642;23.308;2023-05-08T13:35:06;93938.00;;;20.70;48.41
49393;BME280;35268;42.642;23.308;2023-05-08T13:37:32;93941.66;;;20.51;49.21
49393;BME280;35268;42.642;23.308;2023-05-08T13:39:57;93935.00;;;20.38;49.78
49393;BME280;35268;42.642;23.308;2023-05-08T13:42:22;93944.88;;;20.19;49.49